sensor_id;sensor_type;location;lat;lon;timestamp;P1;durP1;ratioP1;P2;durP2;ratioP2
75935;SDS011;64614;32.062;34.834;2023-05-10T00:01:23;4.80;;;2.53;;
75935;SDS011;64614;32.062;34.834;2023-05-10T00:03:49;5.13;;;2.83;;
75935;SDS011;64614;32.062;34.834;2023-05-10T00:06:15;4.20;;;2.42;;
75935;SDS011;64614;32.062;34.834;2023-05-10T00:08:40;5.57;;;2.70;;
75935;SDS011;64614;32.062;34.834;2023-05-10T00:11:06;5.15;;;2.90;;
75935;SDS011;64614;32.062;34.834;2023-05-10T00:13:32;5.13;;;3.03;;
75935;SDS011;64614;32.062;34.834;2023-05-10T00:15:58;4.70;;;2.80;;
75935;SDS011;64614;32.062;34.834;2023-05-10T00:18:23;5.30;;;2.85;;
75935;SDS011;64614;32.062;34.834;2023-05-10T00:20:49;5.18;;;2.78;;
75935;SDS011;64614;32.062;34.834;2023-05-10T00:23:15;5.03;;;2.90;;
75935;SDS011;64614;32.062;34.834;2023-05-10T00:25:41;6.20;;;3.10;;
75935;SDS011;64614;32.062;34.834;2023-05-10T00:28:06;5.47;;;2.97;;
75935;SDS011;64614;32.062;34.834;2023-05-10T00:30:32;5.90;;;3.03;;
75935;SDS011;64614;32.062;34.834;2023-05-10T00:32:57;5.15;;;2.88;;
75935;SDS011;64614;32.062;34.834;2023-05-10T00:35:23;5.72;;;3.00;;
75935;SDS011;64614;32.062;34.834;2023-05-10T00:37:49;5.13;;;3.10;;
75935;SDS011;64614;32.062;34.834;2023-05-10T00:40:15;5.22;;;2.85;;
75935;SDS011;64614;32.062;34.834;2023-05-10T00:42:40;5.07;;;3.10;;
75935;SDS011;64614;32.062;34.834;2023-05-10T00:45:06;5.50;;;2.90;;
75935;SDS011;64614;32.062;34.834;2023-05-10T00:47:32;3.92;;;2.50;;
75935;SDS011;64614;32.062;34.834;2023-05-10T00:49:59;5.00;;;2.95;;
75935;SDS011;64614;32.062;34.834;2023-05-10T00:52:26;4.93;;;3.05;;
75935;SDS011;64614;32.062;34.834;2023-05-10T00:54:53;5.22;;;2.90;;
75935;SDS011;64614;32.062;34.834;2023-05-10T00:57:19;5.60;;;3.05;;
75935;SDS011;64614;32.062;34.834;2023-05-10T00:59:46;5.07;;;2.92;;
75935;SDS011;64614;32.062;34.834;2023-05-10T01:02:11;4.80;;;2.90;;
75935;SDS011;64614;32.062;34.834;2023-05-10T01:04:38;5.72;;;3.10;;
75935;SDS011;64614;32.062;34.834;2023-05-10T01:07:04;5.72;;;3.00;;
75935;SDS011;64614;32.062;34.834;2023-05-10T01:09:30;5.32;;;3.13;;
75935;SDS011;64614;32.062;34.834;2023-05-10T01:11:57;5.20;;;3.20;;
75935;SDS011;64614;32.062;34.834;2023-05-10T01:14:23;5.30;;;3.15;;
75935;SDS011;64614;32.062;34.834;2023-05-10T01:16:50;4.55;;;2.92;;
75935;SDS011;64614;32.062;34.834;2023-05-10T01:19:28;5.18;;;3.30;;
75935;SDS011;64614;32.062;34.834;2023-05-10T01:22:16;5.43;;;3.20;;
75935;SDS011;64614;32.062;34.834;2023-05-10T01:31:14;4.75;;;2.95;;
75935;SDS011;64614;32.062;34.834;2023-05-10T01:42:11;5.55;;;3.20;;
75935;SDS011;64614;32.062;34.834;2023-05-10T01:44:45;4.70;;;3.15;;
75935;SDS011;64614;32.062;34.834;2023-05-10T01:47:55;4.95;;;2.92;;
75935;SDS011;64614;32.062;34.834;2023-05-10T01:50:06;5.80;;;3.40;;
75935;SDS011;64614;32.062;34.834;2023-05-10T01:52:56;5.03;;;3.20;;
75935;SDS011;64614;32.062;34.834;2023-05-10T01:55:25;5.55;;;3.05;;
75935;SDS011;64614;32.062;34.834;2023-05-10T01:58:13;5.20;;;3.20;;
75935;SDS011;64614;32.062;34.834;2023-05-10T02:00:42;5.93;;;3.30;;
75935;SDS011;64614;32.062;34.834;2023-05-10T02:03:09;5.07;;;3.30;;
75935;SDS011;64614;32.062;34.834;2023-05-10T02:05:36;5.68;;;3.03;;
75935;SDS011;64614;32.062;34.834;2023-05-10T02:08:05;5.10;;;3.20;;
75935;SDS011;64614;32.062;34.834;2023-05-10T02:10:33;5.35;;;3.35;;
75935;SDS011;64614;32.062;34.834;2023-05-10T02:13:00;5.20;;;3.30;;
75935;SDS011;64614;32.062;34.834;2023-05-10T02:15:27;5.75;;;3.42;;
75935;SDS011;64614;32.062;34.834;2023-05-10T02:17:57;5.72;;;3.63;;
75935;SDS011;64614;32.062;34.834;2023-05-10T02:20:25;6.00;;;3.30;;
75935;SDS011;64614;32.062;34.834;2023-05-10T02:22:52;6.15;;;3.05;;
75935;SDS011;64614;32.062;34.834;2023-05-10T02:25:21;5.68;;;3.38;;
75935;SDS011;64614;32.062;34.834;2023-05-10T02:27:48;5.72;;;3.33;;
75935;SDS011;64614;32.062;34.834;2023-05-10T02:30:15;5.80;;;3.45;;
75935;SDS011;64614;32.062;34.834;2023-05-10T02:32:43;5.20;;;3.22;;
75935;SDS011;64614;32.062;34.834;2023-05-10T02:35:10;7.28;;;3.72;;
75935;SDS011;64614;32.062;34.834;2023-05-10T02:37:39;7.05;;;3.20;;
75935;SDS011;64614;32.062;34.834;2023-05-10T02:40:05;6.78;;;3.42;;
75935;SDS011;64614;32.062;34.834;2023-05-10T02:42:35;5.57;;;3.42;;
75935;SDS011;64614;32.062;34.834;2023-05-10T02:45:05;5.95;;;3.63;;
75935;SDS011;64614;32.062;34.834;2023-05-10T02:47:36;5.35;;;3.22;;
75935;SDS011;64614;32.062;34.834;2023-05-10T02:50:01;5.80;;;3.35;;
75935;SDS011;64614;32.062;34.834;2023-05-10T02:52:29;5.50;;;3.40;;
75935;SDS011;64614;32.062;34.834;2023-05-10T02:55:02;5.28;;;3.30;;
75935;SDS011;64614;32.062;34.834;2023-05-10T02:57:32;6.80;;;3.53;;
75935;SDS011;64614;32.062;34.834;2023-05-10T02:59:59;7.30;;;3.58;;
75935;SDS011;64614;32.062;34.834;2023-05-10T03:02:26;5.38;;;3.33;;
75935;SDS011;64614;32.062;34.834;2023-05-10T03:04:52;6.93;;;3.38;;
75935;SDS011;64614;32.062;34.834;2023-05-10T03:07:18;5.82;;;3.60;;
75935;SDS011;64614;32.062;34.834;2023-05-10T03:09:46;6.13;;;3.65;;
75935;SDS011;64614;32.062;34.834;2023-05-10T03:20:11;7.68;;;4.03;;
75935;SDS011;64614;32.062;34.834;2023-05-10T03:22:45;6.28;;;4.22;;
75935;SDS011;64614;32.062;34.834;2023-05-10T03:25:14;6.75;;;3.97;;
75935;SDS011;64614;32.062;34.834;2023-05-10T03:27:42;6.82;;;4.20;;
75935;SDS011;64614;32.062;34.834;2023-05-10T03:30:12;7.88;;;4.75;;
75935;SDS011;64614;32.062;34.834;2023-05-10T03:32:38;7.10;;;4.60;;
75935;SDS011;64614;32.062;34.834;2023-05-10T03:35:08;7.10;;;4.32;;
75935;SDS011;64614;32.062;34.834;2023-05-10T03:37:34;8.93;;;4.90;;
75935;SDS011;64614;32.062;34.834;2023-05-10T03:40:00;8.75;;;5.05;;
75935;SDS011;64614;32.062;34.834;2023-05-10T03:42:26;9.80;;;5.55;;
75935;SDS011;64614;32.062;34.834;2023-05-10T03:44:52;10.10;;;6.20;;
75935;SDS011;64614;32.062;34.834;2023-05-10T03:47:17;10.52;;;7.07;;
75935;SDS011;64614;32.062;34.834;2023-05-10T03:49:43;11.00;;;7.25;;
75935;SDS011;64614;32.062;34.834;2023-05-10T03:52:08;14.27;;;8.93;;
75935;SDS011;64614;32.062;34.834;2023-05-10T03:54:34;13.52;;;10.02;;
75935;SDS011;64614;32.062;34.834;2023-05-10T03:57:00;14.68;;;10.10;;
75935;SDS011;64614;32.062;34.834;2023-05-10T03:59:26;15.45;;;10.45;;
75935;SDS011;64614;32.062;34.834;2023-05-10T04:01:51;14.82;;;10.00;;
75935;SDS011;64614;32.062;34.834;2023-05-10T04:04:17;14.23;;;10.38;;
75935;SDS011;64614;32.062;34.834;2023-05-10T04:06:43;14.38;;;10.23;;
75935;SDS011;64614;32.062;34.834;2023-05-10T04:09:10;16.75;;;11.23;;
75935;SDS011;64614;32.062;34.834;2023-05-10T04:11:35;15.93;;;10.30;;
75935;SDS011;64614;32.062;34.834;2023-05-10T04:14:01;13.88;;;9.80;;
75935;SDS011;64614;32.062;34.834;2023-05-10T04:16:27;15.02;;;10.18;;
75935;SDS011;64614;32.062;34.834;2023-05-10T04:18:53;16.48;;;10.65;;
75935;SDS011;64614;32.062;34.834;2023-05-10T04:21:18;13.30;;;10.15;;
75935;SDS011;64614;32.062;34.834;2023-05-10T04:23:44;14.25;;;8.85;;
75935;SDS011;64614;32.062;34.834;2023-05-10T04:26:10;13.15;;;9.48;;
75935;SDS011;64614;32.062;34.834;2023-05-10T04:28:35;12.57;;;8.82;;
75935;SDS011;64614;32.062;34.834;2023-05-10T04:31:04;13.77;;;9.15;;
75935;SDS011;64614;32.062;34.834;2023-05-10T04:33:33;12.75;;;8.90;;
75935;SDS011;64614;32.062;34.834;2023-05-10T04:36:00;10.20;;;7.95;;
75935;SDS011;64614;32.062;34.834;2023-05-10T04:38:26;13.65;;;8.52;;
75935;SDS011;64614;32.062;34.834;2023-05-10T04:40:52;12.25;;;8.68;;
75935;SDS011;64614;32.062;34.834;2023-05-10T04:43:19;11.15;;;7.97;;
75935;SDS011;64614;32.062;34.834;2023-05-10T04:45:45;11.30;;;8.35;;
75935;SDS011;64614;32.062;34.834;2023-05-10T04:48:11;12.18;;;8.13;;
75935;SDS011;64614;32.062;34.834;2023-05-10T04:50:37;13.13;;;7.82;;
75935;SDS011;64614;32.062;34.834;2023-05-10T04:53:04;10.52;;;7.15;;
75935;SDS011;64614;32.062;34.834;2023-05-10T04:55:29;9.80;;;6.88;;
75935;SDS011;64614;32.062;34.834;2023-05-10T04:57:55;10.48;;;7.18;;
75935;SDS011;64614;32.062;34.834;2023-05-10T05:00:22;10.00;;;6.88;;
75935;SDS011;64614;32.062;34.834;2023-05-10T05:02:48;9.60;;;6.88;;
75935;SDS011;64614;32.062;34.834;2023-05-10T05:05:14;9.70;;;7.20;;
75935;SDS011;64614;32.062;34.834;2023-05-10T05:07:40;11.20;;;6.78;;
75935;SDS011;64614;32.062;34.834;2023-05-10T05:10:06;10.00;;;6.43;;
75935;SDS011;64614;32.062;34.834;2023-05-10T05:12:33;9.48;;;6.32;;
75935;SDS011;64614;32.062;34.834;2023-05-10T05:15:00;9.52;;;6.68;;
75935;SDS011;64614;32.062;34.834;2023-05-10T05:17:26;9.00;;;6.13;;
75935;SDS011;64614;32.062;34.834;2023-05-10T05:19:51;9.63;;;6.70;;
75935;SDS011;64614;32.062;34.834;2023-05-10T05:22:17;10.10;;;6.28;;
75935;SDS011;64614;32.062;34.834;2023-05-10T05:24:44;11.55;;;6.70;;
75935;SDS011;64614;32.062;34.834;2023-05-10T05:27:10;9.35;;;6.72;;
75935;SDS011;64614;32.062;34.834;2023-05-10T05:29:36;10.00;;;6.97;;
75935;SDS011;64614;32.062;34.834;2023-05-10T05:32:02;9.43;;;6.47;;
75935;SDS011;64614;32.062;34.834;2023-05-10T05:34:27;10.95;;;6.68;;
75935;SDS011;64614;32.062;34.834;2023-05-10T05:36:53;11.27;;;5.97;;
75935;SDS011;64614;32.062;34.834;2023-05-10T05:39:19;9.38;;;6.60;;
75935;SDS011;64614;32.062;34.834;2023-05-10T05:41:44;9.40;;;6.40;;
75935;SDS011;64614;32.062;34.834;2023-05-10T05:44:11;8.95;;;6.15;;
75935;SDS011;64614;32.062;34.834;2023-05-10T05:46:36;9.30;;;6.63;;
75935;SDS011;64614;32.062;34.834;2023-05-10T05:49:02;8.63;;;6.30;;
75935;SDS011;64614;32.062;34.834;2023-05-10T05:51:28;9.70;;;5.90;;
75935;SDS011;64614;32.062;34.834;2023-05-10T05:53:53;11.77;;;6.80;;
75935;SDS011;64614;32.062;34.834;2023-05-10T05:56:19;9.80;;;6.30;;
75935;SDS011;64614;32.062;34.834;2023-05-10T05:58:49;10.43;;;6.70;;
75935;SDS011;64614;32.062;34.834;2023-05-10T06:01:15;10.77;;;7.07;;
75935;SDS011;64614;32.062;34.834;2023-05-10T06:03:41;10.23;;;6.97;;
75935;SDS011;64614;32.062;34.834;2023-05-10T06:06:07;8.38;;;6.03;;
75935;SDS011;64614;32.062;34.834;2023-05-10T06:08:32;10.65;;;6.25;;
75935;SDS011;64614;32.062;34.834;2023-05-10T06:10:59;10.35;;;6.05;;
75935;SDS011;64614;32.062;34.834;2023-05-10T06:13:25;8.98;;;6.32;;
75935;SDS011;64614;32.062;34.834;2023-05-10T06:15:57;9.50;;;6.20;;
75935;SDS011;64614;32.062;34.834;2023-05-10T06:18:25;8.40;;;5.97;;
75935;SDS011;64614;32.062;34.834;2023-05-10T06:20:51;8.88;;;6.50;;
75935;SDS011;64614;32.062;34.834;2023-05-10T06:23:16;8.88;;;5.88;;
75935;SDS011;64614;32.062;34.834;2023-05-10T06:25:42;11.13;;;5.93;;
75935;SDS011;64614;32.062;34.834;2023-05-10T06:28:08;9.68;;;6.47;;
75935;SDS011;64614;32.062;34.834;2023-05-10T06:30:35;8.93;;;6.18;;
75935;SDS011;64614;32.062;34.834;2023-05-10T06:33:01;9.73;;;6.45;;
75935;SDS011;64614;32.062;34.834;2023-05-10T06:35:27;10.80;;;6.35;;
75935;SDS011;64614;32.062;34.834;2023-05-10T06:37:54;8.93;;;6.05;;
75935;SDS011;64614;32.062;34.834;2023-05-10T06:40:21;8.05;;;5.97;;
75935;SDS011;64614;32.062;34.834;2023-05-10T06:42:47;9.23;;;6.22;;
75935;SDS011;64614;32.062;34.834;2023-05-10T06:45:13;8.30;;;6.30;;
75935;SDS011;64614;32.062;34.834;2023-05-10T06:47:40;9.85;;;6.50;;
75935;SDS011;64614;32.062;34.834;2023-05-10T06:50:09;8.70;;;6.22;;
75935;SDS011;64614;32.062;34.834;2023-05-10T06:52:36;9.45;;;6.40;;
75935;SDS011;64614;32.062;34.834;2023-05-10T06:55:03;9.20;;;6.32;;
75935;SDS011;64614;32.062;34.834;2023-05-10T06:57:29;10.32;;;6.28;;
75935;SDS011;64614;32.062;34.834;2023-05-10T06:59:55;9.82;;;6.65;;
75935;SDS011;64614;32.062;34.834;2023-05-10T07:02:23;8.43;;;6.45;;
75935;SDS011;64614;32.062;34.834;2023-05-10T07:04:49;10.02;;;6.55;;
75935;SDS011;64614;32.062;34.834;2023-05-10T07:07:15;9.18;;;6.35;;
75935;SDS011;64614;32.062;34.834;2023-05-10T07:09:40;9.75;;;6.60;;
75935;SDS011;64614;32.062;34.834;2023-05-10T07:12:06;8.15;;;5.90;;
75935;SDS011;64614;32.062;34.834;2023-05-10T07:14:31;10.82;;;6.35;;
75935;SDS011;64614;32.062;34.834;2023-05-10T07:16:57;8.93;;;6.18;;
75935;SDS011;64614;32.062;34.834;2023-05-10T07:19:23;9.07;;;6.57;;
75935;SDS011;64614;32.062;34.834;2023-05-10T07:21:48;8.50;;;5.88;;
75935;SDS011;64614;32.062;34.834;2023-05-10T07:24:15;9.85;;;6.22;;
75935;SDS011;64614;32.062;34.834;2023-05-10T07:26:40;8.98;;;6.57;;
75935;SDS011;64614;32.062;34.834;2023-05-10T07:29:06;10.48;;;6.22;;
75935;SDS011;64614;32.062;34.834;2023-05-10T07:31:32;8.88;;;6.15;;
75935;SDS011;64614;32.062;34.834;2023-05-10T07:33:57;9.30;;;6.40;;
75935;SDS011;64614;32.062;34.834;2023-05-10T07:36:23;9.27;;;6.25;;
75935;SDS011;64614;32.062;34.834;2023-05-10T07:38:49;10.07;;;6.63;;
75935;SDS011;64614;32.062;34.834;2023-05-10T07:41:14;9.98;;;6.40;;
75935;SDS011;64614;32.062;34.834;2023-05-10T07:43:40;8.90;;;6.45;;
75935;SDS011;64614;32.062;34.834;2023-05-10T07:46:06;10.57;;;6.80;;
75935;SDS011;64614;32.062;34.834;2023-05-10T07:48:31;9.73;;;6.55;;
75935;SDS011;64614;32.062;34.834;2023-05-10T07:50:57;9.60;;;6.55;;
75935;SDS011;64614;32.062;34.834;2023-05-10T07:53:23;10.10;;;7.10;;
75935;SDS011;64614;32.062;34.834;2023-05-10T07:55:52;9.85;;;6.65;;
75935;SDS011;64614;32.062;34.834;2023-05-10T07:58:22;11.23;;;7.30;;
75935;SDS011;64614;32.062;34.834;2023-05-10T08:00:48;10.48;;;7.07;;
75935;SDS011;64614;32.062;34.834;2023-05-10T08:03:14;9.93;;;6.70;;
75935;SDS011;64614;32.062;34.834;2023-05-10T08:05:40;9.93;;;7.18;;
75935;SDS011;64614;32.062;34.834;2023-05-10T08:08:06;11.70;;;7.70;;
75935;SDS011;64614;32.062;34.834;2023-05-10T08:10:31;10.23;;;6.70;;
75935;SDS011;64614;32.062;34.834;2023-05-10T08:12:57;11.02;;;7.05;;
75935;SDS011;64614;32.062;34.834;2023-05-10T08:15:23;10.32;;;6.97;;
75935;SDS011;64614;32.062;34.834;2023-05-10T08:17:51;11.10;;;7.05;;
75935;SDS011;64614;32.062;34.834;2023-05-10T08:20:17;11.07;;;6.95;;
75935;SDS011;64614;32.062;34.834;2023-05-10T08:22:47;9.00;;;6.43;;
75935;SDS011;64614;32.062;34.834;2023-05-10T08:25:12;9.57;;;6.70;;
75935;SDS011;64614;32.062;34.834;2023-05-10T08:27:38;9.57;;;6.80;;
75935;SDS011;64614;32.062;34.834;2023-05-10T08:30:03;9.07;;;6.53;;
75935;SDS011;64614;32.062;34.834;2023-05-10T08:32:30;10.30;;;6.65;;
75935;SDS011;64614;32.062;34.834;2023-05-10T08:34:56;9.77;;;6.70;;
75935;SDS011;64614;32.062;34.834;2023-05-10T08:37:22;8.68;;;6.45;;
75935;SDS011;64614;32.062;34.834;2023-05-10T08:39:48;9.52;;;6.32;;
75935;SDS011;64614;32.062;34.834;2023-05-10T08:42:15;9.65;;;6.32;;
75935;SDS011;64614;32.062;34.834;2023-05-10T08:44:48;11.40;;;6.65;;
75935;SDS011;64614;32.062;34.834;2023-05-10T08:47:15;10.93;;;7.20;;
75935;SDS011;64614;32.062;34.834;2023-05-10T08:49:43;9.90;;;6.75;;
75935;SDS011;64614;32.062;34.834;2023-05-10T08:52:13;10.02;;;6.80;;
75935;SDS011;64614;32.062;34.834;2023-05-10T08:54:41;9.32;;;6.68;;
75935;SDS011;64614;32.062;34.834;2023-05-10T08:57:08;10.10;;;6.72;;
75935;SDS011;64614;32.062;34.834;2023-05-10T08:59:33;9.45;;;6.65;;
75935;SDS011;64614;32.062;34.834;2023-05-10T09:01:59;9.50;;;6.75;;
75935;SDS011;64614;32.062;34.834;2023-05-10T09:04:27;10.38;;;7.45;;
75935;SDS011;64614;32.062;34.834;2023-05-10T09:06:53;11.20;;;7.28;;
75935;SDS011;64614;32.062;34.834;2023-05-10T09:09:19;12.52;;;7.20;;
75935;SDS011;64614;32.062;34.834;2023-05-10T09:11:46;12.13;;;7.68;;
75935;SDS011;64614;32.062;34.834;2023-05-10T09:14:12;10.40;;;7.13;;
75935;SDS011;64614;32.062;34.834;2023-05-10T09:16:39;10.02;;;6.80;;
75935;SDS011;64614;32.062;34.834;2023-05-10T09:19:05;11.50;;;7.28;;
75935;SDS011;64614;32.062;34.834;2023-05-10T09:21:32;11.27;;;6.93;;
75935;SDS011;64614;32.062;34.834;2023-05-10T09:24:02;10.10;;;6.90;;
75935;SDS011;64614;32.062;34.834;2023-05-10T09:26:29;11.98;;;7.53;;
75935;SDS011;64614;32.062;34.834;2023-05-10T09:28:56;10.32;;;7.07;;
75935;SDS011;64614;32.062;34.834;2023-05-10T09:31:23;10.57;;;7.32;;
75935;SDS011;64614;32.062;34.834;2023-05-10T09:33:51;12.10;;;7.47;;
75935;SDS011;64614;32.062;34.834;2023-05-10T09:36:17;9.20;;;6.57;;
75935;SDS011;64614;32.062;34.834;2023-05-10T09:38:49;9.32;;;6.97;;
75935;SDS011;64614;32.062;34.834;2023-05-10T09:41:19;10.07;;;6.85;;
75935;SDS011;64614;32.062;34.834;2023-05-10T09:43:47;9.75;;;6.97;;
75935;SDS011;64614;32.062;34.834;2023-05-10T09:46:13;12.15;;;6.30;;
75935;SDS011;64614;32.062;34.834;2023-05-10T09:48:41;8.82;;;6.22;;
75935;SDS011;64614;32.062;34.834;2023-05-10T09:51:08;9.45;;;7.00;;
75935;SDS011;64614;32.062;34.834;2023-05-10T09:53:34;11.65;;;7.50;;
75935;SDS011;64614;32.062;34.834;2023-05-10T09:56:00;10.65;;;6.70;;
75935;SDS011;64614;32.062;34.834;2023-05-10T09:58:25;8.93;;;6.65;;
75935;SDS011;64614;32.062;34.834;2023-05-10T10:00:51;9.32;;;6.25;;
75935;SDS011;64614;32.062;34.834;2023-05-10T10:03:21;10.65;;;6.35;;
75935;SDS011;64614;32.062;34.834;2023-05-10T10:05:48;11.32;;;7.20;;
75935;SDS011;64614;32.062;34.834;2023-05-10T10:08:14;11.68;;;6.80;;
75935;SDS011;64614;32.062;34.834;2023-05-10T10:10:42;9.38;;;6.22;;
75935;SDS011;64614;32.062;34.834;2023-05-10T10:13:10;9.32;;;6.22;;
75935;SDS011;64614;32.062;34.834;2023-05-10T10:15:36;12.30;;;7.43;;
75935;SDS011;64614;32.062;34.834;2023-05-10T10:18:02;12.85;;;6.97;;
75935;SDS011;64614;32.062;34.834;2023-05-10T10:20:29;10.95;;;6.70;;
75935;SDS011;64614;32.062;34.834;2023-05-10T10:22:54;9.32;;;6.38;;
75935;SDS011;64614;32.062;34.834;2023-05-10T10:25:20;9.30;;;6.10;;
75935;SDS011;64614;32.062;34.834;2023-05-10T10:35:22;7.85;;;5.18;;
75935;SDS011;64614;32.062;34.834;2023-05-10T10:37:49;7.95;;;5.18;;
75935;SDS011;64614;32.062;34.834;2023-05-10T10:40:22;7.95;;;5.07;;
75935;SDS011;64614;32.062;34.834;2023-05-10T10:42:50;8.00;;;5.15;;
75935;SDS011;64614;32.062;34.834;2023-05-10T10:45:17;8.88;;;5.15;;
75935;SDS011;64614;32.062;34.834;2023-05-10T10:47:42;6.68;;;4.65;;
75935;SDS011;64614;32.062;34.834;2023-05-10T10:50:10;7.43;;;4.72;;
75935;SDS011;64614;32.062;34.834;2023-05-10T10:52:41;6.93;;;4.53;;
75935;SDS011;64614;32.062;34.834;2023-05-10T10:55:12;6.80;;;4.43;;
75935;SDS011;64614;32.062;34.834;2023-05-10T11:02:46;8.35;;;4.50;;
75935;SDS011;64614;32.062;34.834;2023-05-10T11:08:10;6.15;;;3.78;;
75935;SDS011;64614;32.062;34.834;2023-05-10T11:10:39;6.25;;;3.75;;
75935;SDS011;64614;32.062;34.834;2023-05-10T11:13:06;6.22;;;3.90;;
75935;SDS011;64614;32.062;34.834;2023-05-10T11:15:39;6.10;;;3.67;;
75935;SDS011;64614;32.062;34.834;2023-05-10T11:18:17;6.15;;;3.50;;
75935;SDS011;64614;32.062;34.834;2023-05-10T11:20:51;5.68;;;3.53;;
75935;SDS011;64614;32.062;34.834;2023-05-10T11:23:21;5.90;;;3.30;;
75935;SDS011;64614;32.062;34.834;2023-05-10T11:25:48;5.90;;;3.50;;
75935;SDS011;64614;32.062;34.834;2023-05-10T11:28:16;6.03;;;3.50;;
75935;SDS011;64614;32.062;34.834;2023-05-10T11:30:44;6.22;;;3.70;;
75935;SDS011;64614;32.062;34.834;2023-05-10T11:33:14;6.00;;;3.58;;
75935;SDS011;64614;32.062;34.834;2023-05-10T11:35:42;4.82;;;3.15;;
75935;SDS011;64614;32.062;34.834;2023-05-10T11:38:08;5.50;;;3.40;;
75935;SDS011;64614;32.062;34.834;2023-05-10T11:40:35;7.53;;;3.85;;
75935;SDS011;64614;32.062;34.834;2023-05-10T11:43:03;5.85;;;3.55;;
75935;SDS011;64614;32.062;34.834;2023-05-10T11:45:31;6.65;;;3.55;;
75935;SDS011;64614;32.062;34.834;2023-05-10T11:47:58;5.97;;;3.42;;
75935;SDS011;64614;32.062;34.834;2023-05-10T11:50:24;6.45;;;3.42;;
75935;SDS011;64614;32.062;34.834;2023-05-10T11:52:53;5.50;;;3.50;;
75935;SDS011;64614;32.062;34.834;2023-05-10T11:55:22;5.60;;;3.40;;
75935;SDS011;64614;32.062;34.834;2023-05-10T11:57:52;5.50;;;3.30;;
75935;SDS011;64614;32.062;34.834;2023-05-10T12:00:19;5.78;;;3.35;;
75935;SDS011;64614;32.062;34.834;2023-05-10T12:02:45;6.07;;;3.40;;
75935;SDS011;64614;32.062;34.834;2023-05-10T12:05:11;6.10;;;3.42;;
75935;SDS011;64614;32.062;34.834;2023-05-10T12:07:37;5.38;;;3.38;;
75935;SDS011;64614;32.062;34.834;2023-05-10T12:12:42;5.70;;;3.17;;
75935;SDS011;64614;32.062;34.834;2023-05-10T12:15:19;5.88;;;3.22;;
75935;SDS011;64614;32.062;34.834;2023-05-10T12:17:47;5.95;;;3.53;;
75935;SDS011;64614;32.062;34.834;2023-05-10T12:20:22;6.15;;;3.78;;
75935;SDS011;64614;32.062;34.834;2023-05-10T12:22:56;5.93;;;3.25;;
75935;SDS011;64614;32.062;34.834;2023-05-10T12:25:23;5.72;;;3.70;;
75935;SDS011;64614;32.062;34.834;2023-05-10T12:27:55;5.57;;;3.38;;
75935;SDS011;64614;32.062;34.834;2023-05-10T12:32:49;6.35;;;3.20;;
75935;SDS011;64614;32.062;34.834;2023-05-10T12:35:15;6.25;;;3.40;;
75935;SDS011;64614;32.062;34.834;2023-05-10T12:37:44;5.80;;;3.53;;
75935;SDS011;64614;32.062;34.834;2023-05-10T12:42:36;6.55;;;3.47;;
75935;SDS011;64614;32.062;34.834;2023-05-10T12:45:03;5.55;;;3.60;;
75935;SDS011;64614;32.062;34.834;2023-05-10T12:47:30;5.72;;;3.47;;
75935;SDS011;64614;32.062;34.834;2023-05-10T12:49:57;6.95;;;3.83;;
75935;SDS011;64614;32.062;34.834;2023-05-10T12:52:22;5.65;;;3.15;;
75935;SDS011;64614;32.062;34.834;2023-05-10T12:54:49;5.65;;;3.47;;
75935;SDS011;64614;32.062;34.834;2023-05-10T12:57:14;5.45;;;3.53;;
75935;SDS011;64614;32.062;34.834;2023-05-10T12:59:40;7.38;;;3.92;;
75935;SDS011;64614;32.062;34.834;2023-05-10T13:02:06;6.10;;;3.83;;
75935;SDS011;64614;32.062;34.834;2023-05-10T13:04:32;6.38;;;3.78;;
75935;SDS011;64614;32.062;34.834;2023-05-10T13:06:57;5.88;;;3.45;;
75935;SDS011;64614;32.062;34.834;2023-05-10T13:09:26;5.05;;;3.30;;
75935;SDS011;64614;32.062;34.834;2023-05-10T13:11:54;5.95;;;3.58;;
75935;SDS011;64614;32.062;34.834;2023-05-10T13:14:20;6.20;;;3.78;;
75935;SDS011;64614;32.062;34.834;2023-05-10T13:16:47;6.28;;;3.53;;
75935;SDS011;64614;32.062;34.834;2023-05-10T13:19:13;7.07;;;3.92;;
75935;SDS011;64614;32.062;34.834;2023-05-10T13:21:39;6.18;;;3.70;;
75935;SDS011;64614;32.062;34.834;2023-05-10T13:24:06;6.35;;;3.88;;
75935;SDS011;64614;32.062;34.834;2023-05-10T13:26:32;6.13;;;3.90;;
75935;SDS011;64614;32.062;34.834;2023-05-10T13:28:58;6.38;;;3.65;;
75935;SDS011;64614;32.062;34.834;2023-05-10T13:31:24;6.60;;;3.72;;
75935;SDS011;64614;32.062;34.834;2023-05-10T13:33:50;6.50;;;3.83;;
75935;SDS011;64614;32.062;34.834;2023-05-10T13:36:16;7.05;;;3.60;;
75935;SDS011;64614;32.062;34.834;2023-05-10T13:38:41;7.22;;;4.00;;
75935;SDS011;64614;32.062;34.834;2023-05-10T13:41:07;7.28;;;4.00;;
75935;SDS011;64614;32.062;34.834;2023-05-10T13:43:32;7.55;;;3.45;;
75935;SDS011;64614;32.062;34.834;2023-05-10T13:45:58;7.53;;;3.58;;
75935;SDS011;64614;32.062;34.834;2023-05-10T13:48:24;6.70;;;3.42;;
75935;SDS011;64614;32.062;34.834;2023-05-10T13:50:49;7.60;;;3.83;;
75935;SDS011;64614;32.062;34.834;2023-05-10T13:53:15;7.05;;;3.70;;
75935;SDS011;64614;32.062;34.834;2023-05-10T13:55:41;7.18;;;3.85;;
75935;SDS011;64614;32.062;34.834;2023-05-10T13:58:06;7.88;;;3.70;;
75935;SDS011;64614;32.062;34.834;2023-05-10T14:00:32;6.43;;;3.67;;
75935;SDS011;64614;32.062;34.834;2023-05-10T22:48:08;6.32;;;4.05;;
75935;SDS011;64614;32.062;34.834;2023-05-10T23:25:30;7.47;;;5.00;;
